sensor_id;sensor_type;location;lat;lon;timestamp;pressure;altitude;pressure_sealevel;temperature;humidity
50125;BME280;36023;48.670;6.184;2022-12-20T00:02:07;99318.63;;;14.97;57.74
50125;BME280;36023;48.670;6.184;2022-12-20T00:04:33;99307.38;;;14.95;57.67
50125;BME280;36023;48.670;6.184;2022-12-20T00:06:59;99309.16;;;14.94;57.53
50125;BME280;36023;48.670;6.184;2022-12-20T00:09:24;99306.56;;;14.93;57.51
50125;BME280;36023;48.670;6.184;2022-12-20T00:11:50;99297.88;;;14.92;57.46
50125;BME280;36023;48.670;6.184;2022-12-20T00:14:16;99301.41;;;14.91;57.39
50125;BME280;36023;48.670;6.184;2022-12-20T00:16:42;99304.00;;;14.91;57.52
50125;BME280;36023;48.670;6.184;2022-12-20T00:19:09;99296.25;;;14.90;57.36
50125;BME280;36023;48.670;6.184;2022-12-20T00:21:35;99293.66;;;14.90;57.46
50125;BME280;36023;48.670;6.184;2022-12-20T00:24:05;99290.19;;;14.89;57.43
50125;BME280;36023;48.670;6.184;2022-12-20T00:26:32;99291.09;;;14.88;57.34
50125;BME280;36023;48.670;6.184;2022-12-20T00:28:59;99285.88;;;14.88;57.33
50125;BME280;36023;48.670;6.184;2022-12-20T00:31:29;99285.88;;;14.88;57.33
50125;BME280;36023;48.670;6.184;2022-12-20T00:33:58;99292.84;;;14.88;57.08
50125;BME280;36023;48.670;6.184;2022-12-20T00:36:26;99292.78;;;14.89;57.30
50125;BME280;36023;48.670;6.184;2022-12-20T00:38:53;99289.34;;;14.89;57.26
50125;BME280;36023;48.670;6.184;2022-12-20T00:41:23;99287.56;;;14.89;57.16
50125;BME280;36023;48.670;6.184;2022-12-20T00:43:50;99280.66;;;14.88;57.23
50125;BME280;36023;48.670;6.184;2022-12-20T00:46:17;99274.53;;;14.89;57.31
50125;BME280;36023;48.670;6.184;2022-12-20T00:48:43;99281.50;;;14.89;57.26
50125;BME280;36023;48.670;6.184;2022-12-20T00:51:15;99268.53;;;14.87;57.19
50125;BME280;36023;48.670;6.184;2022-12-20T00:53:43;99270.16;;;14.90;57.24
50125;BME280;36023;48.670;6.184;2022-12-20T00:56:10;99272.78;;;14.90;57.21
50125;BME280;36023;48.670;6.184;2022-12-20T00:58:37;99274.53;;;14.89;57.14
50125;BME280;36023;48.670;6.184;2022-12-20T01:01:06;99276.28;;;14.89;57.30
50125;BME280;36023;48.670;6.184;2022-12-20T01:03:38;99270.16;;;14.90;57.14
50125;BME280;36023;48.670;6.184;2022-12-20T01:06:04;99271.03;;;14.90;57.27
50125;BME280;36023;48.670;6.184;2022-12-20T01:08:30;99272.78;;;14.90;57.16
50125;BME280;36023;48.670;6.184;2022-12-20T01:11:02;99267.56;;;14.90;57.11
50125;BME280;36023;48.670;6.184;2022-12-20T01:13:29;99265.00;;;14.88;57.12
50125;BME280;36023;48.670;6.184;2022-12-20T01:15:55;99264.09;;;14.89;57.22
50125;BME280;36023;48.670;6.184;2022-12-20T01:18:21;99266.72;;;14.89;57.01
50125;BME280;36023;48.670;6.184;2022-12-20T01:20:47;99267.63;;;14.88;57.15
50125;BME280;36023;48.670;6.184;2022-12-20T01:23:13;99270.22;;;14.88;57.21
50125;BME280;36023;48.670;6.184;2022-12-20T01:25:40;99263.31;;;14.87;57.10
50125;BME280;36023;48.670;6.184;2022-12-20T01:28:05;99266.72;;;14.89;57.39
50125;BME280;36023;48.670;6.184;2022-12-20T01:30:31;99265.88;;;14.89;57.22
50125;BME280;36023;48.670;6.184;2022-12-20T01:32:57;99265.00;;;14.88;57.19
50125;BME280;36023;48.670;6.184;2022-12-20T01:35:23;99267.63;;;14.88;57.16
50125;BME280;36023;48.670;6.184;2022-12-20T01:37:48;99255.50;;;14.87;57.01
50125;BME280;36023;48.670;6.184;2022-12-20T01:40:14;99258.94;;;14.88;57.10
50125;BME280;36023;48.670;6.184;2022-12-20T01:42:40;99253.75;;;14.88;57.08
50125;BME280;36023;48.670;6.184;2022-12-20T01:45:10;99250.28;;;14.87;57.03
50125;BME280;36023;48.670;6.184;2022-12-20T01:47:38;99255.50;;;14.87;56.95
50125;BME280;36023;48.670;6.184;2022-12-20T01:50:05;99258.09;;;14.87;56.95
50125;BME280;36023;48.670;6.184;2022-12-20T01:52:36;99259.81;;;14.88;56.92
50125;BME280;36023;48.670;6.184;2022-12-20T01:55:11;99263.31;;;14.87;57.03
50125;BME280;36023;48.670;6.184;2022-12-20T02:00:18;99258.13;;;14.86;57.02
50125;BME280;36023;48.670;6.184;2022-12-20T02:02:46;99259.88;;;14.85;56.93
50125;BME280;36023;48.670;6.184;2022-12-20T02:05:15;99256.38;;;14.86;56.95
50125;BME280;36023;48.670;6.184;2022-12-20T02:07:45;99251.16;;;14.86;56.81
50125;BME280;36023;48.670;6.184;2022-12-20T02:10:15;99264.25;;;14.85;56.81
50125;BME280;36023;48.670;6.184;2022-12-20T02:12:44;99259.88;;;14.85;56.78
50125;BME280;36023;48.670;6.184;2022-12-20T02:21:37;99247.75;;;14.84;56.77
50125;BME280;36023;48.670;6.184;2022-12-20T02:33:00;99226.13;;;14.82;56.68
50125;BME280;36023;48.670;6.184;2022-12-20T02:35:31;99213.06;;;14.82;56.63
50125;BME280;36023;48.670;6.184;2022-12-20T02:38:01;99206.09;;;14.83;56.64
50125;BME280;36023;48.670;6.184;2022-12-20T02:40:36;99189.59;;;14.82;56.51
50125;BME280;36023;48.670;6.184;2022-12-20T02:43:06;99198.28;;;14.83;56.67
50125;BME280;36023;48.670;6.184;2022-12-20T02:45:54;99181.72;;;14.84;56.62
50125;BME280;36023;48.670;6.184;2022-12-20T02:48:24;99186.03;;;14.85;56.52
50125;BME280;36023;48.670;6.184;2022-12-20T02:50:53;99178.28;;;14.83;56.46
50125;BME280;36023;48.670;6.184;2022-12-20T02:53:23;99177.34;;;14.84;56.52
50125;BME280;36023;48.670;6.184;2022-12-20T02:55:56;99167.84;;;14.83;56.48
50125;BME280;36023;48.670;6.184;2022-12-20T02:58:36;99171.22;;;14.85;56.51
50125;BME280;36023;48.670;6.184;2022-12-20T03:01:08;99156.50;;;14.84;56.37
50125;BME280;36023;48.670;6.184;2022-12-20T03:03:35;99173.84;;;14.85;56.37
50125;BME280;36023;48.670;6.184;2022-12-20T03:06:01;99176.44;;;14.85;56.40
50125;BME280;36023;48.670;6.184;2022-12-20T03:08:28;99177.34;;;14.84;56.52
50125;BME280;36023;48.670;6.184;2022-12-20T03:10:55;99178.16;;;14.86;56.39
50125;BME280;36023;48.670;6.184;2022-12-20T03:13:22;99178.22;;;14.85;56.24
50125;BME280;36023;48.670;6.184;2022-12-20T03:15:54;99175.53;;;14.86;56.22
50125;BME280;36023;48.670;6.184;2022-12-20T03:18:21;99176.44;;;14.85;56.27
50125;BME280;36023;48.670;6.184;2022-12-20T03:20:46;99174.69;;;14.86;56.29
50125;BME280;36023;48.670;6.184;2022-12-20T03:23:12;99179.06;;;14.85;56.30
50125;BME280;36023;48.670;6.184;2022-12-20T03:25:39;99182.50;;;14.86;56.22
50125;BME280;36023;48.670;6.184;2022-12-20T03:28:06;99192.94;;;14.86;56.12
50125;BME280;36023;48.670;6.184;2022-12-20T03:30:32;99189.47;;;14.87;56.13
50125;BME280;36023;48.670;6.184;2022-12-20T03:32:58;99188.56;;;14.86;56.11
50125;BME280;36023;48.670;6.184;2022-12-20T03:35:23;99189.47;;;14.87;56.23
50125;BME280;36023;48.670;6.184;2022-12-20T03:37:49;99192.06;;;14.87;56.14
50125;BME280;36023;48.670;6.184;2022-12-20T03:40:15;99183.38;;;14.86;56.06
50125;BME280;36023;48.670;6.184;2022-12-20T03:42:42;99179.03;;;14.87;55.99
50125;BME280;36023;48.670;6.184;2022-12-20T03:45:08;99173.81;;;14.87;56.02
50125;BME280;36023;48.670;6.184;2022-12-20T03:47:35;99167.72;;;14.86;56.28
50125;BME280;36023;48.670;6.184;2022-12-20T03:50:02;99167.72;;;14.86;55.74
50125;BME280;36023;48.670;6.184;2022-12-20T03:52:32;99169.44;;;14.87;55.94
50125;BME280;36023;48.670;6.184;2022-12-20T03:54:59;99164.22;;;14.87;55.85
50125;BME280;36023;48.670;6.184;2022-12-20T03:57:34;99165.09;;;14.86;55.82
50125;BME280;36023;48.670;6.184;2022-12-20T04:00:04;99158.16;;;14.87;55.81
50125;BME280;36023;48.670;6.184;2022-12-20T04:02:40;99160.78;;;14.87;55.85
50125;BME280;36023;48.670;6.184;2022-12-20T04:05:07;99151.22;;;14.86;55.75
50125;BME280;36023;48.670;6.184;2022-12-20T04:07:35;99158.16;;;14.87;55.67
50125;BME280;36023;48.670;6.184;2022-12-20T04:10:01;99157.28;;;14.86;55.66
50125;BME280;36023;48.670;6.184;2022-12-20T04:12:27;99156.44;;;14.86;55.72
50125;BME280;36023;48.670;6.184;2022-12-20T04:14:53;99155.56;;;14.87;55.65
50125;BME280;36023;48.670;6.184;2022-12-20T04:17:19;99151.22;;;14.86;55.60
50125;BME280;36023;48.670;6.184;2022-12-20T04:19:46;99152.06;;;14.86;55.51
50125;BME280;36023;48.670;6.184;2022-12-20T04:22:13;99151.22;;;14.86;55.67
50125;BME280;36023;48.670;6.184;2022-12-20T04:24:54;99151.22;;;14.86;55.67
50125;BME280;36023;48.670;6.184;2022-12-20T04:27:37;99163.41;;;14.85;55.50
50125;BME280;36023;48.670;6.184;2022-12-20T04:30:05;99165.09;;;14.86;55.44
50125;BME280;36023;48.670;6.184;2022-12-20T04:32:32;99166.03;;;14.85;55.44
50125;BME280;36023;48.670;6.184;2022-12-20T04:34:59;99155.59;;;14.85;55.52
50125;BME280;36023;48.670;6.184;2022-12-20T04:37:25;99164.25;;;14.86;55.38
50125;BME280;36023;48.670;6.184;2022-12-20T04:39:53;99166.88;;;14.86;55.46
50125;BME280;36023;48.670;6.184;2022-12-20T04:42:23;99170.31;;;14.86;55.48
50125;BME280;36023;48.670;6.184;2022-12-20T04:44:51;99164.22;;;14.87;55.45
50125;BME280;36023;48.670;6.184;2022-12-20T04:47:22;99152.13;;;14.85;55.42
50125;BME280;36023;48.670;6.184;2022-12-20T04:49:49;99159.91;;;14.86;55.01
50125;BME280;36023;48.670;6.184;2022-12-20T04:52:14;99148.63;;;14.86;55.24
50125;BME280;36023;48.670;6.184;2022-12-20T04:55:02;99146.84;;;14.86;55.24
50125;BME280;36023;48.670;6.184;2022-12-20T04:57:32;99152.97;;;14.87;55.24
50125;BME280;36023;48.670;6.184;2022-12-20T04:59:58;99142.53;;;14.87;55.29
50125;BME280;36023;48.670;6.184;2022-12-20T05:02:24;99143.38;;;14.87;55.28
50125;BME280;36023;48.670;6.184;2022-12-20T05:04:54;99149.44;;;14.88;55.18
50125;BME280;36023;48.670;6.184;2022-12-20T05:07:20;99147.69;;;14.88;55.14
50125;BME280;36023;48.670;6.184;2022-12-20T05:09:51;99145.91;;;14.89;55.06
50125;BME280;36023;48.670;6.184;2022-12-20T05:12:17;99145.06;;;14.88;55.18
50125;BME280;36023;48.670;6.184;2022-12-20T05:14:44;99144.16;;;14.89;55.10
50125;BME280;36023;48.670;6.184;2022-12-20T05:17:11;99139.78;;;14.90;55.09
50125;BME280;36023;48.670;6.184;2022-12-20T05:19:37;99144.16;;;14.89;55.10
50125;BME280;36023;48.670;6.184;2022-12-20T05:22:03;99136.34;;;14.89;55.19
50125;BME280;36023;48.670;6.184;2022-12-20T05:25:04;99146.75;;;14.89;54.97
50125;BME280;36023;48.670;6.184;2022-12-20T05:27:50;99139.00;;;14.88;54.93
50125;BME280;36023;48.670;6.184;2022-12-20T05:30:17;99129.38;;;14.90;54.85
50125;BME280;36023;48.670;6.184;2022-12-20T05:32:43;99131.06;;;14.91;55.19
50125;BME280;36023;48.670;6.184;2022-12-20T05:35:09;99125.00;;;14.90;54.94
50125;BME280;36023;48.670;6.184;2022-12-20T05:37:35;99118.94;;;14.90;54.85
50125;BME280;36023;48.670;6.184;2022-12-20T05:40:10;99114.56;;;14.90;54.90
50125;BME280;36023;48.670;6.184;2022-12-20T05:42:37;99118.88;;;14.91;54.87
50125;BME280;36023;48.670;6.184;2022-12-20T05:45:03;99108.44;;;14.91;54.87
50125;BME280;36023;48.670;6.184;2022-12-20T05:47:33;99110.19;;;14.91;54.79
50125;BME280;36023;48.670;6.184;2022-12-20T05:50:05;99108.44;;;14.91;54.76
50125;BME280;36023;48.670;6.184;2022-12-20T05:52:37;99111.03;;;14.91;54.76
50125;BME280;36023;48.670;6.184;2022-12-20T05:55:07;99107.53;;;14.92;54.71
50125;BME280;36023;48.670;6.184;2022-12-20T05:57:35;99108.44;;;14.91;54.69
50125;BME280;36023;48.670;6.184;2022-12-20T06:00:02;99108.44;;;14.91;54.81
50125;BME280;36023;48.670;6.184;2022-12-20T06:02:30;99108.44;;;14.91;54.77
50125;BME280;36023;48.670;6.184;2022-12-20T06:05:00;99112.75;;;14.92;54.70
50125;BME280;36023;48.670;6.184;2022-12-20T06:07:28;99109.28;;;14.92;54.70
50125;BME280;36023;48.670;6.184;2022-12-20T06:09:57;99117.97;;;14.92;54.57
50125;BME280;36023;48.670;6.184;2022-12-20T06:12:33;99122.31;;;14.92;54.67
50125;BME280;36023;48.670;6.184;2022-12-20T06:14:59;99118.88;;;14.91;54.50
50125;BME280;36023;48.670;6.184;2022-12-20T06:17:25;99115.34;;;14.92;54.58
50125;BME280;36023;48.670;6.184;2022-12-20T06:19:51;99109.28;;;14.92;54.44
50125;BME280;36023;48.670;6.184;2022-12-20T06:22:18;99114.50;;;14.92;54.51
50125;BME280;36023;48.670;6.184;2022-12-20T06:24:50;99110.13;;;14.92;54.54
50125;BME280;36023;48.670;6.184;2022-12-20T06:27:20;99110.13;;;14.92;54.49
50125;BME280;36023;48.670;6.184;2022-12-20T06:29:54;99105.75;;;14.93;54.35
50125;BME280;36023;48.670;6.184;2022-12-20T06:32:22;99099.69;;;14.92;54.50
50125;BME280;36023;48.670;6.184;2022-12-20T06:34:50;99102.31;;;14.92;54.43
50125;BME280;36023;48.670;6.184;2022-12-20T06:37:16;99096.19;;;14.93;54.34
50125;BME280;36023;48.670;6.184;2022-12-20T06:39:42;99102.31;;;14.92;54.38
50125;BME280;36023;48.670;6.184;2022-12-20T06:42:08;99102.31;;;14.92;54.27
50125;BME280;36023;48.670;6.184;2022-12-20T06:44:34;99097.09;;;14.92;54.26
50125;BME280;36023;48.670;6.184;2022-12-20T06:47:00;99089.28;;;14.92;54.22
50125;BME280;36023;48.670;6.184;2022-12-20T06:49:26;99084.06;;;14.92;54.21
50125;BME280;36023;48.670;6.184;2022-12-20T06:51:52;99088.44;;;14.92;54.32
50125;BME280;36023;48.670;6.184;2022-12-20T06:54:26;99079.69;;;14.93;54.21
50125;BME280;36023;48.670;6.184;2022-12-20T06:56:51;99078.84;;;14.92;54.27
50125;BME280;36023;48.670;6.184;2022-12-20T06:59:18;99068.41;;;14.92;54.12
50125;BME280;36023;48.670;6.184;2022-12-20T07:01:47;99087.50;;;14.93;54.14
50125;BME280;36023;48.670;6.184;2022-12-20T07:04:12;99073.63;;;14.92;54.12
50125;BME280;36023;48.670;6.184;2022-12-20T07:06:38;99078.00;;;14.92;54.17
50125;BME280;36023;48.670;6.184;2022-12-20T07:09:04;99067.56;;;14.92;54.10
50125;BME280;36023;48.670;6.184;2022-12-20T07:11:30;99067.56;;;14.92;54.22
50125;BME280;36023;48.670;6.184;2022-12-20T07:13:57;99072.72;;;14.93;54.13
50125;BME280;36023;48.670;6.184;2022-12-20T07:16:23;99064.88;;;14.93;54.20
50125;BME280;36023;48.670;6.184;2022-12-20T07:18:50;99075.31;;;14.93;54.25
50125;BME280;36023;48.670;6.184;2022-12-20T07:21:17;99078.78;;;14.94;54.06
50125;BME280;36023;48.670;6.184;2022-12-20T07:23:44;99077.91;;;14.95;54.14
50125;BME280;36023;48.670;6.184;2022-12-20T07:26:12;99070.94;;;14.94;54.19
50125;BME280;36023;48.670;6.184;2022-12-20T07:28:38;99068.31;;;14.95;54.08
50125;BME280;36023;48.670;6.184;2022-12-20T07:31:03;99066.63;;;14.94;54.04
50125;BME280;36023;48.670;6.184;2022-12-20T07:33:31;99075.22;;;14.96;54.03
50125;BME280;36023;48.670;6.184;2022-12-20T07:36:01;99083.06;;;14.96;54.06
50125;BME280;36023;48.670;6.184;2022-12-20T07:38:27;99080.44;;;14.96;53.99
50125;BME280;36023;48.670;6.184;2022-12-20T07:40:54;99079.53;;;14.97;54.06
50125;BME280;36023;48.670;6.184;2022-12-20T07:43:19;99073.47;;;14.97;53.96
50125;BME280;36023;48.670;6.184;2022-12-20T07:45:45;99071.72;;;14.97;54.01
50125;BME280;36023;48.670;6.184;2022-12-20T07:48:12;99082.13;;;14.97;53.91
50125;BME280;36023;48.670;6.184;2022-12-20T07:50:39;99076.91;;;14.97;53.98
50125;BME280;36023;48.670;6.184;2022-12-20T07:53:07;99066.50;;;14.97;53.61
50125;BME280;36023;48.670;6.184;2022-12-20T07:55:35;99060.38;;;14.98;53.75
50125;BME280;36023;48.670;6.184;2022-12-20T07:58:05;99057.75;;;14.98;53.83
50125;BME280;36023;48.670;6.184;2022-12-20T08:00:32;99076.00;;;14.98;53.82
50125;BME280;36023;48.670;6.184;2022-12-20T08:05:37;99075.09;;;14.99;53.75
50125;BME280;36023;48.670;6.184;2022-12-20T08:08:06;99078.63;;;14.98;53.74
50125;BME280;36023;48.670;6.184;2022-12-20T08:10:32;99062.97;;;14.98;53.73
50125;BME280;36023;48.670;6.184;2022-12-20T08:12:58;99074.25;;;14.99;53.97
50125;BME280;36023;48.670;6.184;2022-12-20T08:15:25;99075.94;;;15.00;53.61
50125;BME280;36023;48.670;6.184;2022-12-20T08:17:52;99069.88;;;14.99;53.71
50125;BME280;36023;48.670;6.184;2022-12-20T08:20:18;99071.63;;;14.99;53.72
50125;BME280;36023;48.670;6.184;2022-12-20T08:22:45;99082.91;;;14.99;53.68
50125;BME280;36023;48.670;6.184;2022-12-20T08:25:10;99078.63;;;14.98;53.60
50125;BME280;36023;48.670;6.184;2022-12-20T08:27:36;99076.00;;;14.98;53.58
50125;BME280;36023;48.670;6.184;2022-12-20T08:30:03;99076.84;;;14.99;53.70
50125;BME280;36023;48.670;6.184;2022-12-20T08:32:29;99075.09;;;14.99;53.59
50125;BME280;36023;48.670;6.184;2022-12-20T08:34:55;99075.94;;;15.00;53.57
50125;BME280;36023;48.670;6.184;2022-12-20T08:37:20;99067.28;;;14.99;53.57
50125;BME280;36023;48.670;6.184;2022-12-20T08:39:46;99069.88;;;14.99;53.56
50125;BME280;36023;48.670;6.184;2022-12-20T08:42:12;99063.81;;;14.99;53.51
50125;BME280;36023;48.670;6.184;2022-12-20T08:44:37;99065.50;;;15.00;53.65
50125;BME280;36023;48.670;6.184;2022-12-20T08:47:03;99068.13;;;15.00;53.46
50125;BME280;36023;48.670;6.184;2022-12-20T08:49:29;99065.50;;;15.00;53.56
50125;BME280;36023;48.670;6.184;2022-12-20T08:51:55;99069.88;;;14.99;53.50
50125;BME280;36023;48.670;6.184;2022-12-20T08:54:20;99069.88;;;14.99;53.46
50125;BME280;36023;48.670;6.184;2022-12-20T08:56:49;99069.03;;;14.99;53.44
50125;BME280;36023;48.670;6.184;2022-12-20T08:59:15;99082.00;;;15.00;53.36
50125;BME280;36023;48.670;6.184;2022-12-20T09:01:40;99078.56;;;15.00;53.33
50125;BME280;36023;48.670;6.184;2022-12-20T09:04:09;99088.13;;;14.99;53.49
50125;BME280;36023;48.670;6.184;2022-12-20T09:06:35;99081.97;;;15.02;53.40
50125;BME280;36023;48.670;6.184;2022-12-20T09:09:01;99076.78;;;15.00;53.24
50125;BME280;36023;48.670;6.184;2022-12-20T09:11:27;99070.66;;;15.01;53.15
50125;BME280;36023;48.670;6.184;2022-12-20T09:13:55;99069.78;;;15.02;53.30
50125;BME280;36023;48.670;6.184;2022-12-20T09:16:24;99057.53;;;15.04;53.66
50125;BME280;36023;48.670;6.184;2022-12-20T09:18:52;99062.63;;;15.08;53.17
50125;BME280;36023;48.670;6.184;2022-12-20T09:21:18;99065.28;;;15.06;53.10
50125;BME280;36023;48.670;6.184;2022-12-20T09:23:44;99077.47;;;15.05;53.02
50125;BME280;36023;48.670;6.184;2022-12-20T09:26:13;99069.72;;;15.04;53.03
50125;BME280;36023;48.670;6.184;2022-12-20T09:28:39;99076.69;;;15.03;53.04
50125;BME280;36023;48.670;6.184;2022-12-20T09:31:09;99065.41;;;15.03;53.07
50125;BME280;36023;48.670;6.184;2022-12-20T09:33:35;99070.63;;;15.03;53.11
50125;BME280;36023;48.670;6.184;2022-12-20T09:36:02;99071.47;;;15.03;53.02
50125;BME280;36023;48.670;6.184;2022-12-20T09:38:28;99061.03;;;15.03;53.13
50125;BME280;36023;48.670;6.184;2022-12-20T09:40:58;99057.59;;;15.03;53.03
50125;BME280;36023;48.670;6.184;2022-12-20T09:43:26;99052.31;;;15.04;53.10
50125;BME280;36023;48.670;6.184;2022-12-20T09:46:02;99056.69;;;15.04;53.03
50125;BME280;36023;48.670;6.184;2022-12-20T09:48:31;99034.06;;;15.04;52.91
50125;BME280;36023;48.670;6.184;2022-12-20T09:56:29;99044.47;;;15.04;53.06
50125;BME280;36023;48.670;6.184;2022-12-20T09:59:18;99042.72;;;15.05;52.98
50125;BME280;36023;48.670;6.184;2022-12-20T10:01:46;99042.72;;;15.05;53.04
50125;BME280;36023;48.670;6.184;2022-12-20T10:04:23;99044.41;;;15.06;52.90
50125;BME280;36023;48.670;6.184;2022-12-20T10:07:10;99039.19;;;15.06;52.96
50125;BME280;36023;48.670;6.184;2022-12-20T10:12:50;99025.25;;;15.07;53.02
50125;BME280;36023;48.670;6.184;2022-12-20T10:15:22;99030.47;;;15.07;52.84
50125;BME280;36023;48.670;6.184;2022-12-20T10:23:29;99006.06;;;15.08;52.81
50125;BME280;36023;48.670;6.184;2022-12-20T10:25:58;99000.00;;;15.08;52.80
50125;BME280;36023;48.670;6.184;2022-12-20T10:28:28;99013.06;;;15.08;52.85
50125;BME280;36023;48.670;6.184;2022-12-20T10:30:59;99013.91;;;15.08;52.89
50125;BME280;36023;48.670;6.184;2022-12-20T10:33:26;99008.69;;;15.08;52.72
50125;BME280;36023;48.670;6.184;2022-12-20T10:35:52;99017.31;;;15.10;52.93
50125;BME280;36023;48.670;6.184;2022-12-20T10:38:18;99013.84;;;15.10;53.02
50125;BME280;36023;48.670;6.184;2022-12-20T10:40:47;99010.38;;;15.09;52.90
50125;BME280;36023;48.670;6.184;2022-12-20T10:43:23;99007.78;;;15.09;53.00
50125;BME280;36023;48.670;6.184;2022-12-20T10:46:07;98995.56;;;15.10;52.84
50125;BME280;36023;48.670;6.184;2022-12-20T10:48:35;99000.78;;;15.10;52.88
50125;BME280;36023;48.670;6.184;2022-12-20T10:53:35;98993.84;;;15.10;52.87
50125;BME280;36023;48.670;6.184;2022-12-20T10:58:37;98978.19;;;15.10;52.67
50125;BME280;36023;48.670;6.184;2022-12-20T11:01:23;98976.44;;;15.11;52.71
50125;BME280;36023;48.670;6.184;2022-12-20T11:03:56;98961.66;;;15.10;52.72
50125;BME280;36023;48.670;6.184;2022-12-20T11:06:28;98963.41;;;15.11;52.77
50125;BME280;36023;48.670;6.184;2022-12-20T11:12:13;98954.81;;;15.07;52.65
50125;BME280;36023;48.670;6.184;2022-12-20T11:14:41;98947.00;;;15.07;52.80
50125;BME280;36023;48.670;6.184;2022-12-20T11:22:38;98930.03;;;15.19;52.85
50125;BME280;36023;48.670;6.184;2022-12-20T11:39:16;98909.16;;;15.39;52.50
50125;BME280;36023;48.670;6.184;2022-12-20T11:42:05;98906.44;;;15.42;52.45
50125;BME280;36023;48.670;6.184;2022-12-20T11:44:44;98900.22;;;15.45;52.31
50125;BME280;36023;48.670;6.184;2022-12-20T11:51:13;98899.13;;;15.50;52.40
50125;BME280;36023;48.670;6.184;2022-12-20T11:53:33;98899.03;;;15.52;52.20
50125;BME280;36023;48.670;6.184;2022-12-20T11:56:08;98885.91;;;15.53;52.17
50125;BME280;36023;48.670;6.184;2022-12-20T11:58:48;98891.03;;;15.56;52.22
50125;BME280;36023;48.670;6.184;2022-12-20T12:01:17;98881.38;;;15.58;52.04
50125;BME280;36023;48.670;6.184;2022-12-20T12:09:45;98869.84;;;15.64;51.86
50125;BME280;36023;48.670;6.184;2022-12-20T12:12:30;98854.09;;;15.66;51.86
50125;BME280;36023;48.670;6.184;2022-12-20T12:18:19;98853.97;;;15.69;51.89
50125;BME280;36023;48.670;6.184;2022-12-20T12:23:23;98848.59;;;15.72;51.90
50125;BME280;36023;48.670;6.184;2022-12-20T12:25:57;98845.03;;;15.74;51.80
50125;BME280;36023;48.670;6.184;2022-12-20T12:28:23;98843.25;;;15.75;51.72
50125;BME280;36023;48.670;6.184;2022-12-20T12:31:03;98836.25;;;15.75;51.58
50125;BME280;36023;48.670;6.184;2022-12-20T12:33:37;98837.97;;;15.76;51.70
50125;BME280;36023;48.670;6.184;2022-12-20T12:44:53;98847.28;;;15.82;51.54
50125;BME280;36023;48.670;6.184;2022-12-20T12:47:39;98842.84;;;15.84;51.55
50125;BME280;36023;48.670;6.184;2022-12-20T12:50:37;98851.50;;;15.84;51.39
50125;BME280;36023;48.670;6.184;2022-12-20T12:53:14;98854.88;;;15.86;51.46
50125;BME280;36023;48.670;6.184;2022-12-20T12:55:49;98854.88;;;15.86;51.54
50125;BME280;36023;48.670;6.184;2022-12-20T13:04:10;98842.56;;;15.90;51.40
50125;BME280;36023;48.670;6.184;2022-12-20T13:09:21;98840.78;;;15.91;51.27
50125;BME280;36023;48.670;6.184;2022-12-20T13:23:08;98805.78;;;15.95;51.30
50125;BME280;36023;48.670;6.184;2022-12-20T13:25:39;98799.66;;;15.96;51.28
50125;BME280;36023;48.670;6.184;2022-12-20T13:30:44;98796.97;;;15.97;51.27
50125;BME280;36023;48.670;6.184;2022-12-20T13:41:38;98792.50;;;15.99;51.24
50125;BME280;36023;48.670;6.184;2022-12-20T13:49:35;98814.81;;;16.06;51.42
50125;BME280;36023;48.670;6.184;2022-12-20T13:54:45;98819.69;;;16.14;51.18
50125;BME280;36023;48.670;6.184;2022-12-20T13:57:15;98814.31;;;16.17;51.18
50125;BME280;36023;48.670;6.184;2022-12-20T13:59:46;98809.16;;;16.15;51.07
50125;BME280;36023;48.670;6.184;2022-12-20T14:02:25;98815.22;;;16.16;51.16
50125;BME280;36023;48.670;6.184;2022-12-20T14:04:57;98813.47;;;16.16;51.21
50125;BME280;36023;48.670;6.184;2022-12-20T14:07:24;98811.56;;;16.20;51.69
50125;BME280;36023;48.670;6.184;2022-12-20T14:09:58;98807.09;;;16.22;51.78
50125;BME280;36023;48.670;6.184;2022-12-20T14:12:24;98807.03;;;16.24;51.79
50125;BME280;36023;48.670;6.184;2022-12-20T14:14:51;98805.19;;;16.26;52.08
50125;BME280;36023;48.670;6.184;2022-12-20T14:17:25;98796.44;;;16.27;52.39
50125;BME280;36023;48.670;6.184;2022-12-20T14:22:31;98793.69;;;16.30;52.68
50125;BME280;36023;48.670;6.184;2022-12-20T14:25:01;98793.69;;;16.30;52.78
50125;BME280;36023;48.670;6.184;2022-12-20T14:27:31;98784.91;;;16.31;53.07
50125;BME280;36023;48.670;6.184;2022-12-20T14:29:58;98806.66;;;16.31;53.22
50125;BME280;36023;48.670;6.184;2022-12-20T14:32:24;98813.66;;;16.31;53.37
50125;BME280;36023;48.670;6.184;2022-12-20T14:34:51;98810.13;;;16.32;53.19
50125;BME280;36023;48.670;6.184;2022-12-20T14:37:32;98817.88;;;16.33;53.58
50125;BME280;36023;48.670;6.184;2022-12-20T14:42:38;98817.00;;;16.34;53.84
50125;BME280;36023;48.670;6.184;2022-12-20T14:45:25;98822.16;;;16.36;53.75
50125;BME280;36023;48.670;6.184;2022-12-20T14:50:35;98810.69;;;16.38;54.03
50125;BME280;36023;48.670;6.184;2022-12-20T14:53:02;98814.91;;;16.41;54.07
50125;BME280;36023;48.670;6.184;2022-12-20T14:55:35;98802.63;;;16.43;54.12
50125;BME280;36023;48.670;6.184;2022-12-20T14:58:05;98793.88;;;16.44;54.42
50125;BME280;36023;48.670;6.184;2022-12-20T15:01:02;98784.25;;;16.44;54.47
50125;BME280;36023;48.670;6.184;2022-12-20T15:03:52;98777.19;;;16.47;54.58
50125;BME280;36023;48.670;6.184;2022-12-20T15:09:02;98786.78;;;16.46;54.58
50125;BME280;36023;48.670;6.184;2022-12-20T15:11:30;98790.34;;;16.45;54.73
50125;BME280;36023;48.670;6.184;2022-12-20T15:13:56;98797.25;;;16.46;54.85
50125;BME280;36023;48.670;6.184;2022-12-20T15:16:27;98798.09;;;16.47;54.69
50125;BME280;36023;48.670;6.184;2022-12-20T15:18:58;98793.72;;;16.47;54.91
50125;BME280;36023;48.670;6.184;2022-12-20T15:21:39;98786.78;;;16.46;54.81
50125;BME280;36023;48.670;6.184;2022-12-20T15:24:14;98785.09;;;16.45;54.93
50125;BME280;36023;48.670;6.184;2022-12-20T15:26:43;98780.63;;;16.47;54.77
50125;BME280;36023;48.670;6.184;2022-12-20T15:29:16;98776.34;;;16.46;54.78